Bookmark and Share
Track history (hours):
 

Coastal Inspiration

Last reported at 2014-Apr-19 06:32 UTC. Time now 2014-Apr-19 07:08 UTC.
Position N 49°07' W 123°29'.

Length 160 m.

Type: Passenger vessel. MMSI: 316011408.

NotesDate/timePositionNaut miles runAvg speedWind from/ knotsBaromVisibWave heightAir tempDewpointWater temp
2014-Apr-19 06:32N 49°07' W 123°29'1615.8
2014-Apr-19 05:33N 49°00' W 123°08'1212.1
2014-Apr-19 04:33N 49°04' W 123°25'1918.8
2014-Apr-19 03:33N 49°13' W 123°50'1 1.0
2014-Apr-19 02:33N 49°13' W 123°52'1918.8
2014-Apr-19 01:33N 49°06' W 123°25'1212.4
2014-Apr-19 00:33N 49°00' W 123°08'1312.9
2014-Apr-18 23:33N 49°05' W 123°27'1717.1
2014-Apr-18 22:33N 49°13' W 123°50'1 1.2
2014-Apr-18 21:33N 49°13' W 123°51'2020.0
2014-Apr-18 20:33N 49°05' W 123°23'1111.0
2014-Apr-18 19:33N 49°00' W 123°08'1211.6
2014-Apr-18 18:34N 49°03' W 123°25'1919.1
2014-Apr-18 17:33N 49°13' W 123°51'1 1.4
2014-Apr-18 16:33N 49°12' W 123°53'1918.8
2014-Apr-18 15:33N 49°06' W 123°26'1313.0
2014-Apr-18 14:34N 49°00' W 123°08'1211.9
2014-Apr-18 13:34N 49°04' W 123°25'1818.2
2014-Apr-18 12:33N 49°13' W 123°50'4 4.0
2014-Apr-18 11:32N 49°10' W 123°53'0 0.0
2014-Apr-18 10:26N 49°10' W 123°53'0 0.0
2014-Apr-18 09:32N 49°10' W 123°53'0 0.0
2014-Apr-18 08:31N 49°10' W 123°53'4 4.6
2014-Apr-18 07:33N 49°13' W 123°49'2019.6
2014-Apr-18 06:33N 49°05' W 123°22'10 9.9
2014-Apr-18 05:33N 49°00' W 123°08'1515.5
2014-Apr-18 04:33N 49°06' W 123°30'1615.7
2014-Apr-18 03:33N 49°10' W 123°53'6 5.8
2014-Apr-18 02:33N 49°13' W 123°46'1919.2
2014-Apr-18 01:34N 49°04' W 123°20'9 8.6
2014-Apr-18 00:33N 49°00' W 123°08'1414.4
2014-Apr-17 23:33N 49°06' W 123°29'1717.4
2014-Apr-17 22:34N 49°12' W 123°53'2 2.4
2014-Apr-17 21:33N 49°13' W 123°50'2020.2
2014-Apr-17 20:33N 49°05' W 123°21'10 9.8
2014-Apr-17 19:33N 49°00' W 123°08'1211.9
2014-Apr-17 18:34N 49°04' W 123°25'1918.8
2014-Apr-17 17:33N 49°13' W 123°51'2 2.0
2014-Apr-17 16:33N 49°12' W 123°53'1818.0
2014-Apr-17 15:33N 49°07' W 123°27'1413.8
2014-Apr-17 14:33N 49°00' W 123°08'1211.6
2014-Apr-17 13:33N 49°04' W 123°25'1818.3
2014-Apr-17 12:33N 49°13' W 123°49'4 3.9
2014-Apr-17 11:28N 49°10' W 123°53'0 0.0
2014-Apr-17 10:34N 49°10' W 123°53'0 0.0
2014-Apr-17 09:33N 49°10' W 123°53'0 0.0
2014-Apr-17 08:33N 49°10' W 123°53'1 1.4
2014-Apr-17 07:33N 49°11' W 123°53'1818.3
2014-Apr-17 06:33N 49°06' W 123°26'1413.5
2014-Apr-17 05:33N 49°00' W 123°08'1312.9
2014-Apr-17 04:33N 49°05' W 123°26'1818.1
2014-Apr-17 03:33N 49°13' W 123°51'0 0.4
2014-Apr-17 02:33N 49°13' W 123°51'1919.1
2014-Apr-17 01:33N 49°06' W 123°23'1111.5
2014-Apr-17 00:34N 49°00' W 123°08'1312.7
2014-Apr-16 23:33N 49°04' W 123°26'1817.6
2014-Apr-16 22:33N 49°13' W 123°50'2 2.2
2014-Apr-16 21:33N 49°12' W 123°53'1918.5
2014-Apr-16 20:33N 49°06' W 123°26'1313.2
2014-Apr-16 19:33N 49°00' W 123°08'1212.4
2014-Apr-16 18:33N 49°04' W 123°26'1818.3
2014-Apr-16 17:33N 49°13' W 123°51'1 1.0
2014-Apr-16 16:34N 49°13' W 123°52'1818.3
2014-Apr-16 15:34N 49°06' W 123°26'1313.1
2014-Apr-16 14:33N 49°00' W 123°08'1212.0
2014-Apr-16 13:33N 49°04' W 123°25'1818.1
2014-Apr-16 12:34N 49°13' W 123°49'4 4.3
2014-Apr-16 11:33N 49°10' W 123°53'0 0.1
2014-Apr-16 10:33N 49°10' W 123°53'0 0.0
2014-Apr-16 09:33N 49°10' W 123°53'0 0.0
2014-Apr-16 08:33N 49°10' W 123°53'0 0.0
2014-Apr-16 07:33N 49°10' W 123°53'1615.7
2014-Apr-16 06:33N 49°07' W 123°30'1615.9
2014-Apr-16 05:33N 49°00' W 123°08'1212.1
2014-Apr-16 04:34N 49°04' W 123°25'1918.9
2014-Apr-16 03:33N 49°13' W 123°51'0 0.4
2014-Apr-16 02:33N 49°13' W 123°52'1818.4
2014-Apr-16 01:33N 49°07' W 123°25'1313.0
2014-Apr-16 00:33N 49°00' W 123°08'1413.6
2014-Apr-15 23:33N 49°05' W 123°27'1717.5
2014-Apr-15 22:33N 49°12' W 123°52'1 1.0
2014-Apr-15 21:33N 49°12' W 123°53'1918.5
2014-Apr-15 20:33N 49°06' W 123°26'1313.3
2014-Apr-15 19:33N 49°00' W 123°08'1211.5
2014-Apr-15 18:33N 49°04' W 123°25'1919.0
2014-Apr-15 17:33N 49°13' W 123°50'0 0.4
2014-Apr-15 16:33N 49°13' W 123°50'1919.2
2014-Apr-15 15:33N 49°05' W 123°23'1110.9
2014-Apr-15 14:33N 49°00' W 123°08'13 6.4
2014-Apr-15 12:34N 49°04' W 123°26'1717.3
2014-Apr-15 11:34N 49°13' W 123°50'4 4.0
2014-Apr-15 10:34N 49°10' W 123°53'0 0.1
2014-Apr-15 09:34N 49°10' W 123°53'0 0.0
2014-Apr-15 08:34N 49°10' W 123°53'0 0.0
2014-Apr-15 07:31N 49°10' W 123°53'2 1.7
2014-Apr-15 06:34N 49°11' W 123°53'1818.2
2014-Apr-15 05:34N 49°07' W 123°26'3 1.3
2014-Apr-15 03:34N 49°04' W 123°26'1818.5
2014-Apr-15 02:34N 49°13' W 123°51'0 0.4
2014-Apr-15 01:34N 49°13' W 123°51'1918.9
2014-Apr-15 00:34N 49°07' W 123°24'1212.1
2014-Apr-14 23:33N 49°00' W 123°08'1312.9
2014-Apr-14 22:34N 49°04' W 123°27'1817.8
2014-Apr-14 21:34N 49°13' W 123°51'1 0.5
2014-Apr-14 20:34N 49°13' W 123°51'1817.8
2014-Apr-14 19:34N 49°06' W 123°26'1313.2
2014-Apr-14 18:34N 49°00' W 123°08'1211.9
2014-Apr-14 17:34N 49°04' W 123°25'1817.8
2014-Apr-14 16:33N 49°13' W 123°49'2 2.4
2014-Apr-14 15:33N 49°12' W 123°52'1918.6
2014-Apr-14 14:34N 49°06' W 123°26'1312.8
2014-Apr-14 13:33N 49°00' W 123°08'3115.6
2014-Apr-14 11:33N 49°10' W 123°53'0 0.0
2014-Apr-14 10:33N 49°10' W 123°53'0 0.0
2014-Apr-14 09:33N 49°10' W 123°53'0 0.0
2014-Apr-14 08:33N 49°10' W 123°53'0 0.0
2014-Apr-14 07:33N 49°10' W 123°53'1 0.8
2014-Apr-14 06:34N 49°11' W 123°53'1716.7
2014-Apr-14 05:33N 49°07' W 123°28'16 2.2
2014-Apr-13 22:33N 49°13' W 123°50'2 2.4
2014-Apr-13 21:33N 49°12' W 123°53'1717.4
2014-Apr-13 20:34N 49°07' W 123°28'1414.3
2014-Apr-13 19:33N 49°00' W 123°08'1211.8
2014-Apr-13 18:34N 49°04' W 123°25'1817.8
2014-Apr-13 17:33N 49°13' W 123°48'5 3.2
2014-Apr-13 16:09N 49°10' W 123°53'0 0.0
2014-Apr-13 15:33N 49°10' W 123°53'0 0.0
2014-Apr-13 14:26N 49°10' W 123°53'0 0.0
2014-Apr-13 12:20N 49°10' W 123°53'0 0.0
2014-Apr-13 11:32N 49°10' W 123°53'0 0.0
2014-Apr-13 10:31N 49°10' W 123°53'0 0.0
2014-Apr-13 09:30N 49°10' W 123°53'0 0.0
2014-Apr-13 08:30N 49°10' W 123°53'0 0.0
2014-Apr-13 07:23N 49°10' W 123°53'0 0.0
2014-Apr-13 06:17N 49°10' W 123°53'0 0.0
2014-Apr-13 05:04N 49°10' W 123°53'0 0.0
2014-Apr-13 04:28N 49°10' W 123°53'0 0.0
2014-Apr-13 03:22N 49°10' W 123°53'0 0.0
2014-Apr-13 01:18N 49°10' W 123°53'0 0.0
2014-Apr-13 00:26N 49°10' W 123°53'9 9.8
2014-Apr-12 23:33N 49°11' W 123°40'2019.9
2014-Apr-12 22:33N 49°01' W 123°14'2 1.5
2014-Apr-12 21:34N 48°60' W 123°13'1817.8
2014-Apr-12 20:34N 49°09' W 123°36'1111.3
2014-Apr-12 19:33N 49°10' W 123°53'9 8.6
2014-Apr-12 18:33N 49°11' W 123°40'1918.9
2014-Apr-12 17:33N 49°02' W 123°15'1 1.1
2014-Apr-12 16:34N 49°01' W 123°15'1717.0
2014-Apr-12 15:33N 49°09' W 123°37'1110.7
2014-Apr-12 14:33N 49°10' W 123°53'0 0.0
2014-Apr-12 11:33N 49°10' W 123°53'0 0.0
2014-Apr-12 10:27N 49°10' W 123°53'0 0.0
2014-Apr-12 09:34N 49°10' W 123°53'0 0.0
2014-Apr-12 08:34N 49°10' W 123°53'1 0.6
2014-Apr-12 07:34N 49°10' W 123°53'1616.4
2014-Apr-12 06:34N 49°07' W 123°29'1515.1
2014-Apr-12 05:33N 49°00' W 123°08'1312.8
2014-Apr-12 04:34N 49°04' W 123°26'1918.9
2014-Apr-12 03:33N 49°12' W 123°53'5 4.6
2014-Apr-12 02:34N 49°13' W 123°46'1717.0
2014-Apr-12 01:33N 49°05' W 123°23'1111.0
2014-Apr-12 00:33N 49°00' W 123°08'1313.5
2014-Apr-11 23:34N 49°05' W 123°27'1817.9
2014-Apr-11 22:33N 49°12' W 123°52'2 1.5
2014-Apr-11 21:33N 49°13' W 123°50'1918.9
2014-Apr-11 20:34N 49°05' W 123°24'1211.7
2014-Apr-11 19:34N 49°00' W 123°08'1212.4
2014-Apr-11 18:33N 49°04' W 123°26'1818.0
2014-Apr-11 17:33N 49°13' W 123°50'0 0.2
2014-Apr-11 16:33N 49°13' W 123°50'1817.5
2014-Apr-11 15:33N 49°06' W 123°26'1312.9
2014-Apr-11 14:33N 49°00' W 123°08'1212.5
2014-Apr-11 13:33N 49°04' W 123°26'1717.3
2014-Apr-11 12:34N 49°13' W 123°49'4 4.4
2014-Apr-11 11:33N 49°10' W 123°53'0 0.0
2014-Apr-11 10:33N 49°10' W 123°53'0 0.0
2014-Apr-11 09:33N 49°10' W 123°53'0 0.0
2014-Apr-11 08:33N 49°10' W 123°53'1 1.0
2014-Apr-11 07:33N 49°11' W 123°53'1817.8
2014-Apr-11 06:33N 49°06' W 123°27'1413.7
2014-Apr-11 05:33N 49°00' W 123°08'1313.3
2014-Apr-11 04:34N 49°05' W 123°27'1918.5
2014-Apr-11 03:33N 49°12' W 123°53'0 0.5
2014-Apr-11 02:33N 49°12' W 123°53'1918.8
2014-Apr-11 01:33N 49°06' W 123°25'1312.8
2014-Apr-11 00:33N 49°00' W 123°08'1211.8
2014-Apr-10 23:33N 49°04' W 123°25'1918.7
2014-Apr-10 22:33N 49°13' W 123°50'3 2.5
2014-Apr-10 21:33N 49°12' W 123°53'1818.0
2014-Apr-10 20:33N 49°07' W 123°27'1413.9
2014-Apr-10 19:33N 49°00' W 123°08'1212.1
2014-Apr-10 18:34N 49°04' W 123°25'1818.2
2014-Apr-10 17:34N 49°13' W 123°50'1 0.7
2014-Apr-10 16:33N 49°13' W 123°51'1918.6
2014-Apr-10 15:33N 49°06' W 123°24'1211.9
2014-Apr-10 14:34N 49°00' W 123°08'1312.7
2014-Apr-10 13:33N 49°04' W 123°27'1817.8
2014-Apr-10 12:33N 49°13' W 123°50'4 4.2
2014-Apr-10 11:33N 49°10' W 123°53'0 0.0
2014-Apr-10 10:33N 49°10' W 123°53'0 0.0
2014-Apr-10 09:33N 49°10' W 123°53'0 0.0
2014-Apr-10 08:33N 49°10' W 123°53'0 0.4
2014-Apr-10 07:33N 49°10' W 123°53'1616.5
2014-Apr-10 06:33N 49°07' W 123°29'1515.2
2014-Apr-10 05:33N 49°00' W 123°08'1212.2
2014-Apr-10 04:33N 49°04' W 123°26'1818.5
2014-Apr-10 03:33N 49°13' W 123°51'1 1.4
2014-Apr-10 02:33N 49°12' W 123°53'1818.3
2014-Apr-10 01:33N 49°06' W 123°26'1313.5
2014-Apr-10 00:33N 49°00' W 123°08'1212.1
2014-Apr-09 23:33N 49°04' W 123°26'1918.9
2014-Apr-09 22:33N 49°13' W 123°51'0 0.2
2014-Apr-09 21:33N 49°13' W 123°51'1818.3
2014-Apr-09 20:33N 49°06' W 123°25'1312.7
2014-Apr-09 19:33N 49°00' W 123°08'1212.3
2014-Apr-09 18:33N 49°04' W 123°26'1817.7
2014-Apr-09 17:33N 49°13' W 123°49'2 2.2
2014-Apr-09 16:33N 49°12' W 123°52'1818.3
2014-Apr-09 15:34N 49°06' W 123°26'1313.2
2014-Apr-09 14:33N 49°00' W 123°08'1212.5
2014-Apr-09 13:33N 49°04' W 123°26'1817.6
2014-Apr-09 12:33N 49°13' W 123°49'4 0.7
2014-Apr-09 07:32N 49°11' W 123°53'1717.7
2014-Apr-09 06:33N 49°07' W 123°28'  

Dump ship's entire track history

sailing weather and tide predictions

Coastal Inspiration — CFN4970 — position and weather